sensor_id;sensor_type;location;lat;lon;timestamp;pressure;altitude;pressure_sealevel;temperature;humidity
65553;BME280;52465;51.560;14.368;2022-08-18T00:00:26;99769.50;;;27.24;57.60
65553;BME280;52465;51.560;14.368;2022-08-18T00:02:51;99780.75;;;27.26;57.62
65553;BME280;52465;51.560;14.368;2022-08-18T00:05:16;99778.34;;;27.25;57.71
65553;BME280;52465;51.560;14.368;2022-08-18T00:07:42;99781.03;;;27.25;57.74
65553;BME280;52465;51.560;14.368;2022-08-18T00:10:07;99767.88;;;27.23;57.40
65553;BME280;52465;51.560;14.368;2022-08-18T00:12:37;99770.84;;;27.22;57.64
65553;BME280;52465;51.560;14.368;2022-08-18T00:15:07;99768.97;;;27.22;57.37
65553;BME280;52465;51.560;14.368;2022-08-18T00:17:34;99778.09;;;27.21;57.83
65553;BME280;52465;51.560;14.368;2022-08-18T00:20:00;99782.66;;;27.21;57.38
65553;BME280;52465;51.560;14.368;2022-08-18T00:22:26;99778.38;;;27.20;57.52
65553;BME280;52465;51.560;14.368;2022-08-18T00:24:54;99776.78;;;27.19;57.92
65553;BME280;52465;51.560;14.368;2022-08-18T00:27:22;99779.47;;;27.19;57.49
65553;BME280;52465;51.560;14.368;2022-08-18T00:29:48;99777.06;;;27.17;57.82
65553;BME280;52465;51.560;14.368;2022-08-18T00:32:17;99770.06;;;27.16;57.53
65553;BME280;52465;51.560;14.368;2022-08-18T00:34:42;99765.78;;;27.15;57.51
65553;BME280;52465;51.560;14.368;2022-08-18T00:37:08;99759.59;;;27.14;57.54
65553;BME280;52465;51.560;14.368;2022-08-18T00:39:33;99761.47;;;27.14;57.56
65553;BME280;52465;51.560;14.368;2022-08-18T00:42:11;99757.47;;;27.11;57.66
65553;BME280;52465;51.560;14.368;2022-08-18T00:44:36;99760.69;;;27.13;57.87
65553;BME280;52465;51.560;14.368;2022-08-18T00:47:01;99755.59;;;27.12;57.97
65553;BME280;52465;51.560;14.368;2022-08-18T00:49:27;99758.53;;;27.10;57.45
65553;BME280;52465;51.560;14.368;2022-08-18T00:51:52;99760.44;;;27.10;57.92
65553;BME280;52465;51.560;14.368;2022-08-18T00:54:23;99756.94;;;27.09;57.74
65553;BME280;52465;51.560;14.368;2022-08-18T00:56:54;99749.16;;;27.08;57.71
65553;BME280;52465;51.560;14.368;2022-08-18T00:59:35;99760.19;;;27.06;57.65
65553;BME280;52465;51.560;14.368;2022-08-18T01:02:08;99761.00;;;27.07;57.98
65553;BME280;52465;51.560;14.368;2022-08-18T01:04:47;99753.19;;;27.05;57.94
65553;BME280;52465;51.560;14.368;2022-08-18T01:07:19;99751.56;;;27.04;57.81
65553;BME280;52465;51.560;14.368;2022-08-18T01:09:47;99759.63;;;27.04;57.53
65553;BME280;52465;51.560;14.368;2022-08-18T01:12:13;99755.34;;;27.03;57.69
65553;BME280;52465;51.560;14.368;2022-08-18T01:14:38;99753.72;;;27.02;57.76
65553;BME280;52465;51.560;14.368;2022-08-18T01:17:03;99756.41;;;27.02;57.86
65553;BME280;52465;51.560;14.368;2022-08-18T01:19:47;99748.34;;;27.02;57.49
65553;BME280;52465;51.560;14.368;2022-08-18T01:22:39;99752.41;;;27.00;57.62
65553;BME280;52465;51.560;14.368;2022-08-18T01:25:08;99742.50;;;26.95;57.60
65553;BME280;52465;51.560;14.368;2022-08-18T01:27:52;99755.34;;;26.98;57.89
65553;BME280;52465;51.560;14.368;2022-08-18T01:30:20;99746.78;;;26.96;58.05
65553;BME280;52465;51.560;14.368;2022-08-18T01:32:49;99748.38;;;26.97;57.86
65553;BME280;52465;51.560;14.368;2022-08-18T01:35:17;99750.56;;;26.95;58.00
65553;BME280;52465;51.560;14.368;2022-08-18T01:37:44;99748.41;;;26.92;57.67
65553;BME280;52465;51.560;14.368;2022-08-18T01:40:12;99746.81;;;26.91;57.77
65553;BME280;52465;51.560;14.368;2022-08-18T01:42:38;99747.91;;;26.90;58.12
65553;BME280;52465;51.560;14.368;2022-08-18T01:45:05;99744.66;;;26.88;58.03
65553;BME280;52465;51.560;14.368;2022-08-18T01:47:32;99745.50;;;26.88;58.17
65553;BME280;52465;51.560;14.368;2022-08-18T01:49:58;99744.66;;;26.88;57.75
65553;BME280;52465;51.560;14.368;2022-08-18T01:52:25;99751.13;;;26.87;57.92
65553;BME280;52465;51.560;14.368;2022-08-18T01:54:51;99747.63;;;26.86;57.80
65553;BME280;52465;51.560;14.368;2022-08-18T01:57:19;99753.28;;;26.85;58.21
65553;BME280;52465;51.560;14.368;2022-08-18T01:59:44;99750.31;;;26.86;57.95
65553;BME280;52465;51.560;14.368;2022-08-18T02:02:14;99745.22;;;26.85;58.22
65553;BME280;52465;51.560;14.368;2022-08-18T02:04:40;99743.63;;;26.84;57.87
65553;BME280;52465;51.560;14.368;2022-08-18T02:07:09;99748.19;;;26.83;58.19
65553;BME280;52465;51.560;14.368;2022-08-18T02:09:36;99743.88;;;26.82;57.69
65553;BME280;52465;51.560;14.368;2022-08-18T02:12:04;99741.19;;;26.82;58.37
65553;BME280;52465;51.560;14.368;2022-08-18T02:14:31;99743.09;;;26.82;58.20
65553;BME280;52465;51.560;14.368;2022-08-18T02:16:58;99750.34;;;26.81;57.96
65553;BME280;52465;51.560;14.368;2022-08-18T02:19:23;99748.75;;;26.80;58.10
65553;BME280;52465;51.560;14.368;2022-08-18T02:21:50;99753.31;;;26.80;57.99
65553;BME280;52465;51.560;14.368;2022-08-18T02:24:17;99746.34;;;26.79;58.29
65553;BME280;52465;51.560;14.368;2022-08-18T02:26:42;99747.13;;;26.79;58.20
65553;BME280;52465;51.560;14.368;2022-08-18T02:29:08;99746.63;;;26.77;58.08
65553;BME280;52465;51.560;14.368;2022-08-18T02:31:33;99753.84;;;26.77;58.08
65553;BME280;52465;51.560;14.368;2022-08-18T02:33:59;99753.84;;;26.77;58.26
65553;BME280;52465;51.560;14.368;2022-08-18T02:36:24;99753.84;;;26.77;58.26
65553;BME280;52465;51.560;14.368;2022-08-18T02:38:49;99756.81;;;26.75;58.09
65553;BME280;52465;51.560;14.368;2022-08-18T02:41:15;99759.78;;;26.74;57.89
65553;BME280;52465;51.560;14.368;2022-08-18T02:43:40;99760.88;;;26.73;58.02
65553;BME280;52465;51.560;14.368;2022-08-18T02:46:06;99756.59;;;26.72;58.28
65553;BME280;52465;51.560;14.368;2022-08-18T02:48:32;99750.38;;;26.71;58.21
65553;BME280;52465;51.560;14.368;2022-08-18T02:51:05;99752.56;;;26.69;58.33
65553;BME280;52465;51.560;14.368;2022-08-18T02:53:32;99748.25;;;26.68;58.07
65553;BME280;52465;51.560;14.368;2022-08-18T02:56:09;99753.63;;;26.68;57.99
65553;BME280;52465;51.560;14.368;2022-08-18T02:58:58;99753.63;;;26.68;58.06
65553;BME280;52465;51.560;14.368;2022-08-18T03:01:27;99754.72;;;26.67;57.98
65553;BME280;52465;51.560;14.368;2022-08-18T03:03:54;99754.97;;;26.66;58.12
65553;BME280;52465;51.560;14.368;2022-08-18T03:06:21;99757.66;;;26.66;58.05
65553;BME280;52465;51.560;14.368;2022-08-18T03:08:47;99750.69;;;26.64;57.83
65553;BME280;52465;51.560;14.368;2022-08-18T03:11:16;99749.09;;;26.63;58.13
65553;BME280;52465;51.560;14.368;2022-08-18T03:13:42;99743.72;;;26.63;58.11
65553;BME280;52465;51.560;14.368;2022-08-18T03:16:08;99750.16;;;26.62;57.96
65553;BME280;52465;51.560;14.368;2022-08-18T03:18:33;99742.41;;;26.61;58.42
65553;BME280;52465;51.560;14.368;2022-08-18T03:21:08;99745.34;;;26.59;58.25
65553;BME280;52465;51.560;14.368;2022-08-18T03:23:34;99740.25;;;26.58;58.22
65553;BME280;52465;51.560;14.368;2022-08-18T03:26:00;99738.38;;;26.58;58.32
65553;BME280;52465;51.560;14.368;2022-08-18T03:28:26;99741.03;;;26.58;58.06
65553;BME280;52465;51.560;14.368;2022-08-18T03:30:52;99741.03;;;26.58;58.17
65553;BME280;52465;51.560;14.368;2022-08-18T03:33:18;99743.72;;;26.58;58.40
65553;BME280;52465;51.560;14.368;2022-08-18T03:35:43;99736.75;;;26.57;58.42
65553;BME280;52465;51.560;14.368;2022-08-18T03:38:08;99739.44;;;26.57;58.32
65553;BME280;52465;51.560;14.368;2022-08-18T03:40:34;99740.53;;;26.56;58.34
65553;BME280;52465;51.560;14.368;2022-08-18T03:43:02;99727.66;;;26.53;58.42
65553;BME280;52465;51.560;14.368;2022-08-18T03:45:31;99727.94;;;26.52;58.26
65553;BME280;52465;51.560;14.368;2022-08-18T03:47:57;99731.41;;;26.52;58.29
65553;BME280;52465;51.560;14.368;2022-08-18T03:50:24;99722.84;;;26.50;58.05
65553;BME280;52465;51.560;14.368;2022-08-18T03:52:50;99733.56;;;26.50;58.27
65553;BME280;52465;51.560;14.368;2022-08-18T03:55:16;99724.72;;;26.50;58.11
65553;BME280;52465;51.560;14.368;2022-08-18T03:57:43;99729.53;;;26.48;58.55
65553;BME280;52465;51.560;14.368;2022-08-18T04:00:10;99728.75;;;26.47;58.34
65553;BME280;52465;51.560;14.368;2022-08-18T04:02:36;99734.13;;;26.47;58.27
65553;BME280;52465;51.560;14.368;2022-08-18T04:05:01;99738.97;;;26.45;58.61
65553;BME280;52465;51.560;14.368;2022-08-18T04:07:27;99734.41;;;26.46;58.56
65553;BME280;52465;51.560;14.368;2022-08-18T04:09:53;99736.28;;;26.45;58.21
65553;BME280;52465;51.560;14.368;2022-08-18T04:12:18;99736.28;;;26.45;58.20
65553;BME280;52465;51.560;14.368;2022-08-18T04:14:46;99746.22;;;26.45;58.16
65553;BME280;52465;51.560;14.368;2022-08-18T04:17:12;99743.53;;;26.45;58.31
65553;BME280;52465;51.560;14.368;2022-08-18T04:19:38;99741.94;;;26.44;58.24
65553;BME280;52465;51.560;14.368;2022-08-18T04:22:04;99742.97;;;26.43;58.40
65553;BME280;52465;51.560;14.368;2022-08-18T04:24:31;99741.38;;;26.42;58.46
65553;BME280;52465;51.560;14.368;2022-08-18T04:26:58;99743.25;;;26.41;58.05
65553;BME280;52465;51.560;14.368;2022-08-18T04:29:26;99737.91;;;26.41;58.26
65553;BME280;52465;51.560;14.368;2022-08-18T04:31:51;99748.63;;;26.41;58.21
65553;BME280;52465;51.560;14.368;2022-08-18T04:34:17;99739.75;;;26.41;58.41
65553;BME280;52465;51.560;14.368;2022-08-18T04:36:45;99748.63;;;26.41;58.42
65553;BME280;52465;51.560;14.368;2022-08-18T04:39:11;99747.81;;;26.41;58.30
65553;BME280;52465;51.560;14.368;2022-08-18T04:41:38;99748.09;;;26.39;58.38
65553;BME280;52465;51.560;14.368;2022-08-18T04:44:06;99739.47;;;26.37;58.20
65553;BME280;52465;51.560;14.368;2022-08-18T04:46:37;99746.47;;;26.38;58.41
65553;BME280;52465;51.560;14.368;2022-08-18T04:49:04;99747.81;;;26.35;58.54
65553;BME280;52465;51.560;14.368;2022-08-18T04:51:29;99753.97;;;26.36;58.24
65553;BME280;52465;51.560;14.368;2022-08-18T04:53:56;99760.44;;;26.35;58.49
65553;BME280;52465;51.560;14.368;2022-08-18T04:56:24;99762.31;;;26.34;58.36
65553;BME280;52465;51.560;14.368;2022-08-18T05:01:21;99765.00;;;26.34;58.37
65553;BME280;52465;51.560;14.368;2022-08-18T05:03:48;99769.56;;;26.34;58.32
65553;BME280;52465;51.560;14.368;2022-08-18T05:06:15;99772.25;;;26.34;58.33
65553;BME280;52465;51.560;14.368;2022-08-18T05:08:40;99772.25;;;26.34;58.33
65553;BME280;52465;51.560;14.368;2022-08-18T05:11:05;99772.25;;;26.29;58.32
65553;BME280;52465;51.560;14.368;2022-08-18T05:13:31;99747.34;;;26.13;58.29
65553;BME280;52465;51.560;14.368;2022-08-18T05:15:58;99768.22;;;26.31;58.23
65553;BME280;52465;51.560;14.368;2022-08-18T05:18:31;99776.00;;;26.33;58.22
65553;BME280;52465;51.560;14.368;2022-08-18T05:20:58;99782.44;;;26.32;58.24
65553;BME280;52465;51.560;14.368;2022-08-18T05:23:25;99778.94;;;26.31;58.34
65553;BME280;52465;51.560;14.368;2022-08-18T05:25:56;99767.41;;;26.31;58.24
65553;BME280;52465;51.560;14.368;2022-08-18T05:28:22;99770.66;;;26.28;58.24
65553;BME280;52465;51.560;14.368;2022-08-18T05:30:47;99775.75;;;26.29;58.35
65553;BME280;52465;51.560;14.368;2022-08-18T05:33:12;99774.94;;;26.29;58.29
65553;BME280;52465;51.560;14.368;2022-08-18T05:35:52;99774.94;;;26.29;58.32
65553;BME280;52465;51.560;14.368;2022-08-18T05:38:39;99766.09;;;26.28;58.55
65553;BME280;52465;51.560;14.368;2022-08-18T05:41:11;99769.56;;;26.29;58.42
65553;BME280;52465;51.560;14.368;2022-08-18T05:43:38;99784.06;;;26.28;58.37
65553;BME280;52465;51.560;14.368;2022-08-18T05:46:06;99785.16;;;26.27;58.18
65553;BME280;52465;51.560;14.368;2022-08-18T05:48:33;99773.59;;;26.26;58.56
65553;BME280;52465;51.560;14.368;2022-08-18T05:51:02;99768.50;;;26.25;58.56
65553;BME280;52465;51.560;14.368;2022-08-18T05:53:31;99773.59;;;26.26;58.30
65553;BME280;52465;51.560;14.368;2022-08-18T05:56:19;99769.31;;;26.25;58.56
65553;BME280;52465;51.560;14.368;2022-08-18T05:59:08;99762.84;;;26.26;58.54
65553;BME280;52465;51.560;14.368;2022-08-18T06:01:39;99765.28;;;26.28;58.27
65553;BME280;52465;51.560;14.368;2022-08-18T06:04:39;99769.31;;;26.25;58.18
65553;BME280;52465;51.560;14.368;2022-08-18T06:07:09;99764.75;;;26.26;58.50
65553;BME280;52465;51.560;14.368;2022-08-18T06:09:44;99769.31;;;26.25;58.55
65553;BME280;52465;51.560;14.368;2022-08-18T06:12:20;99776.56;;;26.25;58.57
65553;BME280;52465;51.560;14.368;2022-08-18T06:14:48;99768.50;;;26.25;58.33
65553;BME280;52465;51.560;14.368;2022-08-18T06:17:42;99768.78;;;26.23;58.57
65553;BME280;52465;51.560;14.368;2022-08-18T06:23:03;99774.44;;;26.22;58.52
65553;BME280;52465;51.560;14.368;2022-08-18T06:28:22;99776.03;;;26.23;58.71
65553;BME280;52465;51.560;14.368;2022-08-18T06:31:03;99783.00;;;26.24;58.49
65553;BME280;52465;51.560;14.368;2022-08-18T06:36:11;99782.19;;;26.23;58.67
65553;BME280;52465;51.560;14.368;2022-08-18T06:38:49;99778.44;;;26.24;58.81
65553;BME280;52465;51.560;14.368;2022-08-18T06:41:21;99783.81;;;26.24;58.68
65553;BME280;52465;51.560;14.368;2022-08-18T06:43:57;99783.00;;;26.24;58.73
65553;BME280;52465;51.560;14.368;2022-08-18T06:46:31;99787.00;;;26.26;58.71
65553;BME280;52465;51.560;14.368;2022-08-18T06:49:06;99795.06;;;26.26;58.90
65553;BME280;52465;51.560;14.368;2022-08-18T06:51:33;99790.53;;;26.27;58.84
65553;BME280;52465;51.560;14.368;2022-08-18T06:54:02;99788.88;;;26.26;58.69
65553;BME280;52465;51.560;14.368;2022-08-18T07:01:38;99784.31;;;26.26;58.67
65553;BME280;52465;51.560;14.368;2022-08-18T07:04:04;99786.75;;;26.28;58.94
65553;BME280;52465;51.560;14.368;2022-08-18T07:06:30;99772.25;;;26.29;58.56
65553;BME280;52465;51.560;14.368;2022-08-18T07:09:20;99784.06;;;26.28;58.96
65553;BME280;52465;51.560;14.368;2022-08-18T07:12:05;99779.50;;;26.28;58.86
65553;BME280;52465;51.560;14.368;2022-08-18T07:14:41;99786.47;;;26.29;58.66
65553;BME280;52465;51.560;14.368;2022-08-18T07:17:10;99784.59;;;26.30;58.73
65553;BME280;52465;51.560;14.368;2022-08-18T07:19:36;99784.88;;;26.28;58.60
65553;BME280;52465;51.560;14.368;2022-08-18T07:22:12;99780.84;;;26.31;58.56
65553;BME280;52465;51.560;14.368;2022-08-18T07:24:42;99788.88;;;26.31;58.70
65553;BME280;52465;51.560;14.368;2022-08-18T07:27:14;99787.28;;;26.30;58.86
65553;BME280;52465;51.560;14.368;2022-08-18T07:30:05;99786.19;;;26.31;58.70
65553;BME280;52465;51.560;14.368;2022-08-18T07:32:36;99788.88;;;26.31;58.67
65553;BME280;52465;51.560;14.368;2022-08-18T07:35:07;99780.59;;;26.32;58.72
65553;BME280;52465;51.560;14.368;2022-08-18T07:37:41;99770.66;;;26.33;58.65
65553;BME280;52465;51.560;14.368;2022-08-18T07:40:24;99778.69;;;26.33;58.59
65553;BME280;52465;51.560;14.368;2022-08-18T07:42:59;99789.16;;;26.34;58.82
65553;BME280;52465;51.560;14.368;2022-08-18T07:45:40;99780.31;;;26.34;58.59
65553;BME280;52465;51.560;14.368;2022-08-18T07:48:11;99781.91;;;26.35;59.00
65553;BME280;52465;51.560;14.368;2022-08-18T07:56:21;99787.78;;;26.37;58.73
65553;BME280;52465;51.560;14.368;2022-08-18T07:58:57;99784.31;;;26.36;58.59
65553;BME280;52465;51.560;14.368;2022-08-18T08:01:51;99789.66;;;26.36;58.82
65553;BME280;52465;51.560;14.368;2022-08-18T08:07:04;99785.66;;;26.39;58.52
65553;BME280;52465;51.560;14.368;2022-08-18T08:09:53;99791.81;;;26.40;58.48
65553;BME280;52465;51.560;14.368;2022-08-18T08:15:11;99796.94;;;26.41;58.80
65553;BME280;52465;51.560;14.368;2022-08-18T08:20:26;99795.63;;;26.44;58.50
65553;BME280;52465;51.560;14.368;2022-08-18T08:25:57;99785.41;;;26.46;58.27
65553;BME280;52465;51.560;14.368;2022-08-18T08:34:32;99784.31;;;26.47;58.41
65553;BME280;52465;51.560;14.368;2022-08-18T08:37:03;99792.09;;;26.48;58.57
65553;BME280;52465;51.560;14.368;2022-08-18T08:39:40;99780.56;;;26.48;58.38
65553;BME280;52465;51.560;14.368;2022-08-18T08:42:14;99782.97;;;26.49;58.71
65553;BME280;52465;51.560;14.368;2022-08-18T08:44:55;99779.75;;;26.47;58.52
65553;BME280;52465;51.560;14.368;2022-08-18T08:47:33;99780.81;;;26.51;58.45
65553;BME280;52465;51.560;14.368;2022-08-18T08:50:12;99778.94;;;26.52;58.30
65553;BME280;52465;51.560;14.368;2022-08-18T08:52:46;99772.75;;;26.51;58.52
65553;BME280;52465;51.560;14.368;2022-08-18T08:55:22;99769.50;;;26.54;58.48
65553;BME280;52465;51.560;14.368;2022-08-18T09:00:37;99767.66;;;26.55;58.24
65553;BME280;52465;51.560;14.368;2022-08-18T09:08:17;99754.47;;;26.58;58.21
65553;BME280;52465;51.560;14.368;2022-08-18T09:10:49;99748.81;;;26.60;58.42
65553;BME280;52465;51.560;14.368;2022-08-18T09:13:31;99742.66;;;26.59;58.05
65553;BME280;52465;51.560;14.368;2022-08-18T09:21:45;99732.97;;;26.63;58.34
65553;BME280;52465;51.560;14.368;2022-08-18T09:24:25;99728.41;;;26.64;58.16
65553;BME280;52465;51.560;14.368;2022-08-18T09:27:13;99733.50;;;26.66;58.08
65553;BME280;52465;51.560;14.368;2022-08-18T09:29:52;99731.63;;;26.66;58.20
65553;BME280;52465;51.560;14.368;2022-08-18T09:35:08;99713.34;;;26.68;57.86
65553;BME280;52465;51.560;14.368;2022-08-18T09:37:59;99720.34;;;26.69;57.87
65553;BME280;52465;51.560;14.368;2022-08-18T09:40:51;99712.00;;;26.71;57.85
65553;BME280;52465;51.560;14.368;2022-08-18T09:43:58;99715.47;;;26.71;57.92
65553;BME280;52465;51.560;14.368;2022-08-18T09:51:56;99701.50;;;26.74;57.68
65553;BME280;52465;51.560;14.368;2022-08-18T09:54:30;99709.28;;;26.76;57.76
65553;BME280;52465;51.560;14.368;2022-08-18T10:02:11;99703.66;;;26.77;57.66
65553;BME280;52465;51.560;14.368;2022-08-18T10:04:39;99696.66;;;26.76;57.49
65553;BME280;52465;51.560;14.368;2022-08-18T10:07:28;99693.72;;;26.78;57.48
65553;BME280;52465;51.560;14.368;2022-08-18T10:09:59;99705.25;;;26.78;57.67
65553;BME280;52465;51.560;14.368;2022-08-18T10:15:28;99703.38;;;26.79;57.52
65553;BME280;52465;51.560;14.368;2022-08-18T10:23:58;99691.53;;;26.80;57.58
65553;BME280;52465;51.560;14.368;2022-08-18T10:28:58;99690.44;;;26.81;57.58
65553;BME280;52465;51.560;14.368;2022-08-18T10:31:24;99685.09;;;26.81;57.18
65553;BME280;52465;51.560;14.368;2022-08-18T10:34:07;99672.75;;;26.80;57.45
65553;BME280;52465;51.560;14.368;2022-08-18T10:36:38;99680.25;;;26.83;57.43
65553;BME280;52465;51.560;14.368;2022-08-18T10:39:06;99673.78;;;26.84;57.46
65553;BME280;52465;51.560;14.368;2022-08-18T10:41:36;99671.63;;;26.86;57.58
65553;BME280;52465;51.560;14.368;2022-08-18T10:44:02;99659.53;;;26.88;57.35
65553;BME280;52465;51.560;14.368;2022-08-18T10:46:40;99664.63;;;26.90;57.40
65553;BME280;52465;51.560;14.368;2022-08-18T10:49:18;99677.47;;;26.93;57.14
65553;BME280;52465;51.560;14.368;2022-08-18T10:54:30;99675.84;;;26.97;56.89
65553;BME280;52465;51.560;14.368;2022-08-18T11:00:03;99659.44;;;26.99;57.17
65553;BME280;52465;51.560;14.368;2022-08-18T11:02:52;99668.03;;;27.01;56.71
65553;BME280;52465;51.560;14.368;2022-08-18T11:05:24;99662.38;;;27.02;56.63
65553;BME280;52465;51.560;14.368;2022-08-18T11:07:56;99668.03;;;27.01;56.72
65553;BME280;52465;51.560;14.368;2022-08-18T11:10:36;99665.06;;;27.02;56.85
65553;BME280;52465;51.560;14.368;2022-08-18T11:13:18;99660.22;;;27.04;56.43
65553;BME280;52465;51.560;14.368;2022-08-18T11:16:07;99666.16;;;27.06;56.54
65553;BME280;52465;51.560;14.368;2022-08-18T11:18:45;99658.09;;;27.06;56.71
65553;BME280;52465;51.560;14.368;2022-08-18T11:21:34;99646.25;;;27.07;56.41
65553;BME280;52465;51.560;14.368;2022-08-18T11:26:31;99645.13;;;27.13;55.96
65553;BME280;52465;51.560;14.368;2022-08-18T11:29:00;99635.19;;;27.14;56.23
65553;BME280;52465;51.560;14.368;2022-08-18T11:31:26;99652.09;;;27.14;56.43
65553;BME280;52465;51.560;14.368;2022-08-18T11:33:51;99644.03;;;27.14;55.92
65553;BME280;52465;51.560;14.368;2022-08-18T11:36:17;99639.47;;;27.15;56.14
65553;BME280;52465;51.560;14.368;2022-08-18T11:38:54;99633.28;;;27.14;55.90
65553;BME280;52465;51.560;14.368;2022-08-18T11:41:26;99645.66;;;27.15;56.24
65553;BME280;52465;51.560;14.368;2022-08-18T11:43:56;99640.28;;;27.15;56.46
65553;BME280;52465;51.560;14.368;2022-08-18T11:46:30;99641.06;;;27.16;56.00
65553;BME280;52465;51.560;14.368;2022-08-18T11:49:00;99647.28;;;27.17;56.07
65553;BME280;52465;51.560;14.368;2022-08-18T11:51:28;99649.97;;;27.17;56.18
65553;BME280;52465;51.560;14.368;2022-08-18T11:54:00;99645.38;;;27.17;56.13
65553;BME280;52465;51.560;14.368;2022-08-18T11:56:33;99639.22;;;27.17;56.34
65553;BME280;52465;51.560;14.368;2022-08-18T11:59:01;99658.03;;;27.17;56.10
65553;BME280;52465;51.560;14.368;2022-08-18T12:01:39;99670.38;;;27.18;55.82
65553;BME280;52465;51.560;14.368;2022-08-18T12:09:18;99671.97;;;27.19;55.94
65553;BME280;52465;51.560;14.368;2022-08-18T12:12:02;99672.25;;;27.17;55.90
65553;BME280;52465;51.560;14.368;2022-08-18T12:14:32;99670.09;;;27.19;56.31
65553;BME280;52465;51.560;14.368;2022-08-18T12:16:58;99663.09;;;27.18;55.84
65553;BME280;52465;51.560;14.368;2022-08-18T12:19:24;99661.50;;;27.17;55.96
65553;BME280;52465;51.560;14.368;2022-08-18T12:21:58;99669.28;;;27.19;55.97
65553;BME280;52465;51.560;14.368;2022-08-18T12:24:29;99660.41;;;27.18;55.90
65553;BME280;52465;51.560;14.368;2022-08-18T12:26:55;99663.91;;;27.19;55.80
65553;BME280;52465;51.560;14.368;2022-08-18T12:29:22;99656.66;;;27.19;55.89
65553;BME280;52465;51.560;14.368;2022-08-18T12:31:50;99659.34;;;27.19;56.21
65553;BME280;52465;51.560;14.368;2022-08-18T12:34:17;99658.53;;;27.19;56.19
65553;BME280;52465;51.560;14.368;2022-08-18T12:36:44;99658.53;;;27.19;55.90
65553;BME280;52465;51.560;14.368;2022-08-18T12:39:09;99657.44;;;27.20;55.83
65553;BME280;52465;51.560;14.368;2022-08-18T12:41:34;99653.97;;;27.19;56.23
65553;BME280;52465;51.560;14.368;2022-08-18T12:44:00;99653.97;;;27.19;56.13
65553;BME280;52465;51.560;14.368;2022-08-18T12:46:25;99663.63;;;27.20;55.82
65553;BME280;52465;51.560;14.368;2022-08-18T12:48:51;99660.94;;;27.20;56.28
65553;BME280;52465;51.560;14.368;2022-08-18T12:51:16;99665.50;;;27.20;56.22
65553;BME280;52465;51.560;14.368;2022-08-18T12:53:42;99660.94;;;27.20;55.83
65553;BME280;52465;51.560;14.368;2022-08-18T12:58:45;99659.84;;;27.21;55.91
65553;BME280;52465;51.560;14.368;2022-08-18T13:01:11;99659.03;;;27.21;55.83
65553;BME280;52465;51.560;14.368;2022-08-18T13:03:36;99644.00;;;27.20;56.24
65553;BME280;52465;51.560;14.368;2022-08-18T13:06:01;99650.97;;;27.21;56.21
65553;BME280;52465;51.560;14.368;2022-08-18T13:08:27;99645.59;;;27.21;56.12
65553;BME280;52465;51.560;14.368;2022-08-18T13:10:52;99643.72;;;27.21;55.76
65553;BME280;52465;51.560;14.368;2022-08-18T13:13:18;99644.53;;;27.22;56.42
65553;BME280;52465;51.560;14.368;2022-08-18T13:15:44;99641.84;;;27.22;55.90
65553;BME280;52465;51.560;14.368;2022-08-18T13:18:10;99644.53;;;27.22;55.93
65553;BME280;52465;51.560;14.368;2022-08-18T13:20:35;99641.84;;;27.22;56.43
65553;BME280;52465;51.560;14.368;2022-08-18T13:23:01;99639.97;;;27.22;56.36
65553;BME280;52465;51.560;14.368;2022-08-18T13:25:26;99642.66;;;27.22;56.01
65553;BME280;52465;51.560;14.368;2022-08-18T13:27:52;99647.22;;;27.22;56.25
65553;BME280;52465;51.560;14.368;2022-08-18T13:30:17;99639.16;;;27.22;56.33
65553;BME280;52465;51.560;14.368;2022-08-18T13:32:43;99639.16;;;27.22;56.32
65553;BME280;52465;51.560;14.368;2022-08-18T13:35:10;99639.16;;;27.22;55.97
65553;BME280;52465;51.560;14.368;2022-08-18T13:37:35;99640.22;;;27.21;56.37
65553;BME280;52465;51.560;14.368;2022-08-18T13:40:01;99635.66;;;27.21;56.54
65553;BME280;52465;51.560;14.368;2022-08-18T13:42:27;99635.66;;;27.21;55.91
65553;BME280;52465;51.560;14.368;2022-08-18T13:44:58;99631.66;;;27.19;55.93
65553;BME280;52465;51.560;14.368;2022-08-18T13:47:26;99632.72;;;27.23;56.05
65553;BME280;52465;51.560;14.368;2022-08-18T13:49:53;99628.13;;;27.23;55.96
65553;BME280;52465;51.560;14.368;2022-08-18T13:52:18;99618.47;;;27.22;56.05
65553;BME280;52465;51.560;14.368;2022-08-18T13:54:44;99612.81;;;27.24;56.34
65553;BME280;52465;51.560;14.368;2022-08-18T13:57:11;99612.81;;;27.24;55.96
65553;BME280;52465;51.560;14.368;2022-08-18T13:59:36;99606.63;;;27.23;55.92
65553;BME280;52465;51.560;14.368;2022-08-18T14:02:08;99616.28;;;27.24;56.22
65553;BME280;52465;51.560;14.368;2022-08-18T14:04:34;99612.81;;;27.24;55.97
65553;BME280;52465;51.560;14.368;2022-08-18T14:07:00;99615.22;;;27.25;55.86
65553;BME280;52465;51.560;14.368;2022-08-18T14:09:27;99611.44;;;27.26;55.94
65553;BME280;52465;51.560;14.368;2022-08-18T14:11:52;99616.00;;;27.26;56.23
65553;BME280;52465;51.560;14.368;2022-08-18T14:14:18;99606.84;;;27.27;55.97
65553;BME280;52465;51.560;14.368;2022-08-18T14:16:45;99613.84;;;27.28;56.36
65553;BME280;52465;51.560;14.368;2022-08-18T14:19:10;99604.41;;;27.30;55.83
65553;BME280;52465;51.560;14.368;2022-08-18T14:21:54;99604.13;;;27.32;55.90
65553;BME280;52465;51.560;14.368;2022-08-18T14:24:39;99606.81;;;27.32;56.23
65553;BME280;52465;51.560;14.368;2022-08-18T14:27:26;99620.00;;;27.33;55.96
65553;BME280;52465;51.560;14.368;2022-08-18T14:29:54;99614.59;;;27.33;55.98
65553;BME280;52465;51.560;14.368;2022-08-18T14:32:21;99621.59;;;27.34;55.88
65553;BME280;52465;51.560;14.368;2022-08-18T14:34:47;99626.97;;;27.34;56.04
65553;BME280;52465;51.560;14.368;2022-08-18T14:37:12;99635.81;;;27.35;56.31
65553;BME280;52465;51.560;14.368;2022-08-18T14:39:37;99646.56;;;27.35;56.31